createdAt,value
2018-05-29T00:01:43.748Z,69.25
2018-05-29T00:04:12.155Z,69.35
2018-05-29T00:06:40.546Z,69.90
2018-05-29T00:09:08.990Z,69.52
2018-05-29T00:11:37.329Z,70.13
2018-05-29T00:14:05.702Z,70.17
2018-05-29T00:16:34.030Z,69.51
2018-05-29T00:19:02.359Z,69.16
2018-05-29T00:21:30.701Z,69.85
2018-05-29T00:23:59.037Z,70.70
2018-05-29T00:26:27.386Z,70.10
2018-05-29T00:28:55.733Z,69.33
2018-05-29T00:31:24.161Z,68.61
2018-05-29T00:33:52.489Z,68.28
2018-05-29T00:36:20.828Z,69.76
2018-05-29T00:38:49.180Z,69.72
2018-05-29T00:41:17.506Z,69.14
2018-05-29T00:43:45.911Z,70.06
2018-05-29T00:46:14.231Z,70.16
2018-05-29T00:48:42.589Z,69.54
2018-05-29T00:51:10.908Z,70.12
2018-05-29T00:53:39.283Z,69.74
2018-05-29T00:56:07.687Z,69.40
2018-05-29T00:58:36.057Z,70.36
2018-05-29T01:01:04.464Z,70.29
2018-05-29T01:03:32.792Z,70.52
2018-05-29T01:06:01.129Z,70.20
2018-05-29T01:08:29.552Z,70.24
2018-05-29T01:10:57.910Z,69.66
2018-05-29T01:13:26.245Z,69.13
2018-05-29T01:15:54.581Z,70.62
2018-05-29T01:18:22.998Z,70.56
2018-05-29T01:20:51.395Z,69.10
2018-05-29T01:23:19.732Z,68.21
2018-05-29T01:25:48.066Z,70.11
2018-05-29T01:28:16.463Z,71.44
2018-05-29T01:33:19.513Z,70.22
2018-05-29T01:35:47.889Z,70.22
2018-05-29T01:38:16.293Z,70.48
2018-05-29T01:40:44.659Z,71.12
2018-05-29T01:43:12.969Z,72.36
2018-05-29T01:45:41.311Z,72.23
2018-05-29T01:48:09.647Z,72.67
2018-05-29T01:50:37.997Z,72.14
2018-05-29T01:53:06.415Z,71.59
2018-05-29T01:55:34.823Z,71.90
2018-05-29T01:58:03.135Z,72.13
2018-05-29T02:00:31.518Z,72.70
2018-05-29T02:02:59.861Z,72.09
2018-05-29T02:05:28.177Z,72.24
2018-05-29T02:07:56.522Z,72.60
2018-05-29T02:10:24.854Z,72.26
2018-05-29T02:12:53.185Z,72.65
2018-05-29T02:15:21.529Z,73.00
2018-05-29T02:17:49.867Z,73.04
2018-05-29T02:20:18.209Z,72.50
2018-05-29T02:22:46.622Z,73.19
2018-05-29T02:25:14.941Z,72.88
2018-05-29T02:27:43.327Z,72.49
2018-05-29T02:30:11.658Z,71.32
2018-05-29T02:32:39.972Z,70.53
2018-05-29T02:35:08.362Z,71.22
2018-05-29T02:37:36.787Z,70.40
2018-05-29T02:40:05.140Z,69.33
2018-05-29T02:42:33.531Z,68.88
2018-05-29T02:45:01.842Z,68.35
2018-05-29T02:47:30.244Z,67.15
2018-05-29T02:49:58.626Z,67.15
2018-05-29T02:52:26.951Z,67.18
2018-05-29T02:54:55.298Z,67.36
2018-05-29T02:57:24.228Z,66.94
2018-05-29T02:59:52.611Z,67.26
2018-05-29T03:02:20.980Z,66.74
2018-05-29T03:04:49.388Z,66.51
2018-05-29T03:07:17.710Z,67.52
2018-05-29T03:09:46.021Z,68.07
2018-05-29T03:12:14.360Z,67.10
2018-05-29T03:14:42.690Z,67.46
2018-05-29T03:17:11.052Z,67.25
2018-05-29T03:19:39.427Z,67.76
2018-05-29T03:22:07.760Z,68.36
2018-05-29T03:24:36.095Z,67.05
2018-05-29T03:27:04.432Z,65.94
2018-05-29T03:29:32.761Z,65.47
2018-05-29T03:32:01.077Z,66.29
2018-05-29T03:34:29.515Z,66.80
2018-05-29T03:36:57.950Z,66.66
2018-05-29T03:39:26.389Z,66.98
2018-05-29T03:41:54.743Z,67.83
2018-05-29T03:44:23.174Z,66.00
2018-05-29T03:46:51.511Z,66.09
2018-05-29T03:49:19.828Z,66.48
2018-05-29T03:51:48.250Z,67.70
2018-05-29T03:54:16.624Z,68.85
2018-05-29T03:56:45.025Z,66.77
2018-05-29T03:59:13.364Z,65.52
2018-05-29T04:01:42.790Z,65.55
2018-05-29T04:04:11.133Z,65.85
2018-05-29T04:06:39.475Z,67.27
2018-05-29T04:09:07.801Z,67.12
2018-05-29T04:11:36.244Z,66.62
2018-05-29T04:14:04.598Z,67.87
2018-05-29T04:16:32.937Z,68.38
2018-05-29T04:19:01.288Z,68.34
2018-05-29T04:21:29.657Z,68.97
2018-05-29T04:23:58.107Z,67.70
2018-05-29T04:26:26.418Z,68.30
2018-05-29T04:28:54.845Z,66.62
2018-05-29T04:31:23.167Z,65.98
2018-05-29T04:33:51.484Z,65.48
2018-05-29T04:36:19.948Z,66.01
2018-05-29T04:38:48.302Z,66.66
2018-05-29T04:41:16.635Z,66.43
2018-05-29T04:43:44.954Z,65.29
2018-05-29T04:46:13.282Z,65.36
2018-05-29T04:48:41.673Z,64.72
2018-05-29T04:51:10.782Z,64.22
2018-05-29T04:53:39.184Z,64.22
2018-05-29T04:56:07.524Z,64.35
2018-05-29T04:58:35.857Z,64.61
2018-05-29T05:01:04.179Z,64.51
2018-05-29T05:03:32.513Z,63.90
2018-05-29T05:06:00.828Z,63.31
2018-05-29T05:08:29.253Z,63.10
2018-05-29T05:10:57.579Z,63.37
2018-05-29T05:13:26.538Z,62.95
2018-05-29T05:15:54.865Z,63.19
2018-05-29T05:18:23.201Z,62.57
2018-05-29T05:20:51.532Z,62.32
2018-05-29T05:23:19.834Z,62.54
2018-05-29T05:25:48.801Z,62.23
2018-05-29T05:28:17.120Z,61.50
2018-05-29T05:30:45.461Z,61.21
2018-05-29T05:33:13.781Z,60.89
2018-05-29T05:35:42.111Z,60.94
2018-05-29T05:38:10.433Z,60.56
2018-05-29T05:40:39.194Z,59.53
2018-05-29T05:43:07.498Z,59.33
2018-05-29T05:45:35.833Z,58.35
2018-05-29T05:48:04.179Z,58.14
2018-05-29T05:50:32.510Z,57.86
2018-05-29T05:53:00.887Z,57.79
2018-05-29T05:55:29.222Z,55.90
2018-05-29T05:57:57.634Z,55.87
2018-05-29T06:00:25.978Z,54.98
2018-05-29T06:02:54.380Z,53.25
2018-05-29T06:05:22.769Z,50.71
2018-05-29T06:07:51.107Z,47.84
2018-05-29T06:10:19.437Z,45.74
2018-05-29T06:12:47.751Z,44.60
2018-05-29T06:15:22.284Z,43.62
2018-05-29T06:17:50.627Z,41.48
2018-05-29T06:20:18.954Z,42.87
2018-05-29T06:22:47.287Z,41.93
2018-05-29T06:25:15.615Z,40.70
2018-05-29T06:27:44.047Z,39.92
2018-05-29T06:30:12.435Z,40.33
2018-05-29T06:32:40.828Z,39.98
2018-05-29T06:35:09.227Z,40.02
2018-05-29T06:37:37.891Z,41.45
2018-05-29T06:40:06.206Z,42.58
2018-05-29T06:42:34.534Z,43.29
2018-05-29T06:45:03.232Z,41.50
2018-05-29T06:47:31.480Z,41.71
2018-05-29T06:49:59.870Z,41.23
2018-05-29T06:52:28.269Z,39.39
2018-05-29T06:54:56.603Z,39.94
2018-05-29T06:57:25.120Z,40.72
2018-05-29T06:59:53.442Z,40.45
2018-05-29T07:02:21.759Z,41.05
2018-05-29T07:04:50.135Z,40.81
2018-05-29T07:07:18.448Z,40.98
2018-05-29T07:09:46.818Z,41.40
2018-05-29T07:12:15.125Z,40.51
2018-05-29T07:14:43.493Z,40.06
2018-05-29T07:17:11.821Z,39.48
2018-05-29T07:19:40.168Z,40.06
2018-05-29T07:22:08.483Z,40.88
2018-05-29T07:24:36.845Z,40.46
2018-05-29T07:27:05.267Z,39.90
2018-05-29T07:29:33.642Z,39.85
2018-05-29T07:32:01.950Z,40.40
2018-05-29T07:34:30.489Z,40.67
2018-05-29T07:36:58.793Z,41.71
2018-05-29T07:39:27.236Z,42.38
2018-05-29T07:41:56.620Z,42.85
2018-05-29T07:44:24.942Z,41.21
2018-05-29T07:46:53.316Z,40.93
2018-05-29T07:49:21.706Z,40.37
2018-05-29T07:51:50.022Z,41.32
2018-05-29T07:54:18.390Z,41.28
2018-05-29T07:56:46.718Z,41.22
2018-05-29T07:59:15.034Z,40.99
2018-05-29T08:01:43.365Z,39.56
2018-05-29T08:04:11.674Z,38.79
2018-05-29T08:06:40.088Z,37.72
2018-05-29T08:09:08.402Z,38.64
2018-05-29T08:11:36.753Z,39.13
2018-05-29T08:14:05.095Z,39.52
2018-05-29T08:16:33.409Z,40.49
2018-05-29T08:19:01.731Z,40.68
2018-05-29T08:21:30.103Z,40.24
2018-05-29T08:23:58.435Z,39.36
2018-05-29T08:26:26.768Z,39.92
2018-05-29T08:28:55.140Z,39.48
2018-05-29T08:31:23.562Z,39.90
2018-05-29T08:33:51.950Z,38.46
2018-05-29T08:36:20.281Z,38.85
2018-05-29T08:38:48.642Z,37.74
2018-05-29T08:41:16.959Z,38.38
2018-05-29T08:43:45.301Z,36.75
2018-05-29T08:46:13.767Z,36.02
2018-05-29T08:48:42.150Z,36.70
2018-05-29T08:51:10.452Z,37.92
2018-05-29T08:53:38.805Z,38.25
2018-05-29T08:56:07.197Z,38.60
2018-05-29T08:58:35.531Z,37.88
2018-05-29T09:01:03.893Z,37.79
2018-05-29T09:03:32.234Z,38.95
2018-05-29T09:06:00.564Z,38.99
2018-05-29T09:08:28.912Z,38.20
2018-05-29T09:10:57.347Z,38.26
2018-05-29T09:13:25.718Z,37.45
2018-05-29T09:15:54.068Z,36.93
2018-05-29T09:18:22.524Z,37.58
2018-05-29T09:20:50.925Z,37.44
2018-05-29T09:23:19.303Z,36.80
2018-05-29T09:25:47.699Z,37.00
2018-05-29T09:28:16.088Z,37.50
2018-05-29T09:30:44.490Z,38.56
2018-05-29T09:33:13.115Z,37.63
2018-05-29T09:35:41.463Z,37.01
2018-05-29T09:38:09.785Z,37.09
2018-05-29T09:40:38.144Z,36.96
2018-05-29T09:43:06.861Z,36.71
2018-05-29T09:45:35.162Z,36.29
2018-05-29T09:48:03.478Z,35.88
2018-05-29T09:50:31.812Z,35.77
2018-05-29T09:53:00.147Z,35.54
2018-05-29T09:55:28.601Z,36.02
2018-05-29T09:57:56.915Z,35.40
2018-05-29T10:00:31.028Z,35.54
2018-05-29T10:02:59.448Z,35.04
2018-05-29T10:05:27.804Z,34.39
2018-05-29T10:07:56.146Z,35.59
2018-05-29T10:10:24.446Z,35.53
2018-05-29T10:12:55.207Z,34.30
2018-05-29T10:15:24.565Z,33.91
2018-05-29T10:17:52.900Z,32.63
2018-05-29T10:20:21.258Z,31.44
2018-05-29T10:22:49.555Z,32.93
2018-05-29T10:25:17.858Z,31.84
2018-05-29T10:27:46.223Z,32.15
2018-05-29T10:30:14.627Z,33.98
2018-05-29T10:32:42.963Z,34.11
2018-05-29T10:35:11.263Z,33.76
2018-05-29T10:37:39.681Z,33.38
2018-05-29T10:40:07.981Z,32.80
2018-05-29T10:42:36.299Z,32.60
2018-05-29T10:45:04.625Z,30.60
2018-05-29T10:47:33.046Z,30.56
2018-05-29T10:50:01.344Z,30.70
2018-05-29T10:52:29.675Z,31.65
2018-05-29T10:54:58.032Z,32.57
2018-05-29T10:57:26.360Z,32.24
2018-05-29T10:59:54.703Z,30.53
2018-05-29T11:02:23.056Z,30.08
2018-05-29T11:04:51.411Z,30.43
2018-05-29T11:07:19.731Z,31.51
2018-05-29T11:09:48.169Z,31.94
2018-05-29T11:12:16.557Z,31.13
2018-05-29T11:14:44.967Z,31.27
2018-05-29T11:17:13.440Z,31.07
2018-05-29T11:19:41.857Z,30.82
2018-05-29T11:22:10.246Z,29.21
2018-05-29T11:24:38.615Z,29.50
2018-05-29T11:27:06.928Z,29.64
2018-05-29T11:29:35.258Z,29.31
2018-05-29T11:32:03.620Z,28.94
2018-05-29T11:34:32.004Z,29.06
2018-05-29T11:37:00.331Z,29.16
2018-05-29T11:39:28.630Z,28.84
2018-05-29T11:41:56.940Z,28.45
2018-05-29T11:44:25.263Z,26.96
2018-05-29T11:46:53.589Z,28.04
2018-05-29T11:49:21.915Z,28.22
2018-05-29T11:51:50.223Z,29.13
2018-05-29T11:54:18.545Z,29.29
2018-05-29T11:56:46.873Z,28.89
2018-05-29T11:59:15.208Z,29.94
2018-05-29T12:01:43.682Z,30.02
2018-05-29T12:04:11.970Z,28.58
2018-05-29T12:06:40.516Z,28.29
2018-05-29T12:09:08.875Z,28.18
2018-05-29T12:11:37.288Z,28.11
2018-05-29T12:14:05.620Z,28.30
2018-05-29T12:16:33.939Z,28.59
2018-05-29T12:19:02.340Z,28.80
2018-05-29T12:21:30.655Z,29.78
2018-05-29T12:23:58.973Z,30.09
2018-05-29T12:26:27.279Z,30.02
2018-05-29T12:28:55.580Z,29.36
2018-05-29T12:31:23.911Z,29.48
2018-05-29T12:33:52.228Z,28.82
2018-05-29T12:36:20.535Z,28.93
2018-05-29T12:38:48.859Z,29.18
2018-05-29T12:41:17.217Z,29.14
2018-05-29T12:43:45.562Z,29.77
2018-05-29T12:46:14.020Z,30.34
2018-05-29T12:48:42.335Z,30.88
2018-05-29T12:51:10.688Z,30.77
2018-05-29T12:53:39.127Z,31.34
2018-05-29T12:56:07.514Z,29.82
2018-05-29T12:58:35.906Z,28.56
2018-05-29T13:01:04.230Z,29.79
2018-05-29T13:03:32.535Z,30.98
2018-05-29T13:06:00.852Z,30.58
2018-05-29T13:08:29.197Z,29.34
2018-05-29T13:10:57.511Z,29.91
2018-05-29T13:13:25.853Z,29.16
2018-05-29T13:15:54.238Z,28.39
2018-05-29T13:18:22.556Z,27.38
2018-05-29T13:20:50.918Z,28.67
2018-05-29T13:23:19.312Z,29.29
2018-05-29T13:25:47.631Z,30.61
2018-05-29T13:28:15.961Z,30.16
2018-05-29T13:30:44.403Z,28.74
2018-05-29T13:33:12.780Z,29.60
2018-05-29T13:35:41.106Z,28.91
2018-05-29T13:38:09.428Z,28.90
2018-05-29T13:40:37.898Z,28.31
2018-05-29T13:43:06.211Z,28.02
2018-05-29T13:45:34.690Z,28.14
2018-05-29T13:48:02.995Z,29.14
2018-05-29T13:50:31.311Z,30.93
2018-05-29T13:52:59.720Z,32.01
2018-05-29T13:55:28.109Z,30.41
2018-05-29T13:57:56.510Z,29.96
2018-05-29T14:00:24.815Z,31.00
2018-05-29T14:02:53.144Z,30.99
2018-05-29T14:05:21.461Z,30.53
2018-05-29T14:07:50.331Z,29.40
2018-05-29T14:10:18.645Z,28.26
2018-05-29T14:12:46.960Z,30.02
2018-05-29T14:15:15.280Z,30.12
2018-05-29T14:17:43.599Z,30.24
2018-05-29T14:20:11.939Z,29.61
2018-05-29T14:22:40.258Z,29.04
2018-05-29T14:25:08.567Z,29.16
2018-05-29T14:27:36.883Z,30.16
2018-05-29T14:30:05.231Z,30.67
2018-05-29T14:32:33.597Z,31.02
2018-05-29T14:35:01.965Z,33.09
2018-05-29T14:37:30.361Z,33.03
2018-05-29T14:39:58.717Z,32.68
2018-05-29T14:42:27.059Z,33.25
2018-05-29T14:44:55.362Z,32.91
2018-05-29T14:47:24.617Z,33.75
2018-05-29T14:49:52.972Z,34.10
2018-05-29T14:52:21.376Z,34.58
2018-05-29T14:54:49.744Z,34.86
2018-05-29T14:57:18.078Z,35.20
2018-05-29T14:59:46.425Z,35.35
2018-05-29T15:02:14.735Z,35.62
2018-05-29T15:04:43.088Z,36.10
2018-05-29T15:07:11.398Z,36.54
2018-05-29T15:09:39.769Z,36.71
2018-05-29T15:12:08.081Z,36.65
2018-05-29T15:14:36.475Z,36.58
2018-05-29T15:17:04.791Z,36.83
2018-05-29T15:19:33.109Z,36.76
2018-05-29T15:22:01.416Z,36.17
2018-05-29T15:24:29.742Z,35.19
2018-05-29T15:26:58.141Z,35.38
2018-05-29T15:29:26.465Z,35.21
2018-05-29T15:31:54.912Z,34.82
2018-05-29T15:34:23.304Z,34.57
2018-05-29T15:36:51.652Z,34.11
2018-05-29T15:39:19.971Z,34.66
2018-05-29T15:41:48.291Z,32.90
2018-05-29T15:44:21.921Z,34.08
2018-05-29T15:46:50.220Z,33.59
2018-05-29T15:49:18.529Z,33.21
2018-05-29T15:51:46.859Z,33.21
2018-05-29T15:54:15.188Z,33.13
2018-05-29T15:56:43.512Z,33.26
2018-05-29T15:59:11.941Z,33.08
2018-05-29T16:01:40.283Z,33.16
2018-05-29T16:04:08.588Z,32.94
2018-05-29T16:06:36.935Z,33.12
2018-05-29T16:09:06.207Z,34.14
2018-05-29T16:11:34.528Z,34.89
2018-05-29T16:14:02.889Z,34.94
2018-05-29T16:16:31.380Z,36.09
2018-05-29T16:18:59.700Z,34.91
2018-05-29T16:21:28.072Z,35.28
2018-05-29T16:23:56.477Z,36.34
2018-05-29T16:26:24.827Z,36.63
2018-05-29T16:28:53.138Z,37.28
2018-05-29T16:31:21.509Z,37.14
2018-05-29T16:33:49.818Z,37.72
2018-05-29T16:36:18.243Z,38.58
2018-05-29T16:38:46.608Z,39.56
2018-05-29T16:41:15.020Z,40.98
2018-05-29T16:43:43.374Z,42.96
2018-05-29T16:46:11.681Z,42.51
2018-05-29T16:48:40.107Z,42.81
2018-05-29T16:51:08.437Z,43.24
2018-05-29T16:53:36.753Z,43.65
2018-05-29T16:56:05.103Z,43.44
2018-05-29T16:58:33.486Z,43.58
2018-05-29T17:01:01.824Z,43.91
2018-05-29T17:03:30.167Z,45.14
2018-05-29T17:05:58.491Z,45.22
2018-05-29T17:08:26.841Z,45.54
2018-05-29T17:10:55.224Z,45.49
2018-05-29T17:13:23.527Z,45.88
2018-05-29T17:15:51.921Z,46.41
2018-05-29T17:18:20.260Z,46.43
2018-05-29T17:20:48.626Z,47.12
2018-05-29T17:23:16.934Z,47.81
2018-05-29T17:25:45.288Z,48.04
2018-05-29T17:28:13.656Z,48.41
2018-05-29T17:30:41.981Z,48.71
2018-05-29T17:33:10.302Z,49.30
2018-05-29T17:35:38.668Z,49.41
2018-05-29T17:38:07.017Z,50.31
2018-05-29T17:40:35.362Z,49.87
2018-05-29T17:43:03.690Z,50.54
2018-05-29T17:45:32.016Z,50.01
2018-05-29T17:48:00.352Z,49.92
2018-05-29T17:50:28.665Z,50.78
2018-05-29T17:52:57.014Z,50.02
2018-05-29T17:55:25.321Z,50.38
2018-05-29T17:57:53.672Z,50.08
2018-05-29T18:00:21.972Z,50.49
2018-05-29T18:02:50.311Z,51.15
2018-05-29T18:05:18.632Z,52.14
2018-05-29T18:07:47.081Z,51.74
2018-05-29T18:10:15.422Z,51.71
2018-05-29T18:12:43.743Z,52.31
2018-05-29T18:15:12.236Z,52.39
2018-05-29T18:17:40.627Z,52.82
2018-05-29T18:20:08.996Z,52.87
2018-05-29T18:22:37.365Z,53.03
2018-05-29T18:25:05.678Z,53.14
2018-05-29T18:27:34.090Z,53.49
2018-05-29T18:30:02.446Z,53.82
2018-05-29T18:32:30.804Z,53.56
2018-05-29T18:34:59.181Z,53.34
2018-05-29T18:37:27.513Z,54.15
2018-05-29T18:39:56.136Z,53.08
2018-05-29T18:42:24.568Z,52.91
2018-05-29T18:44:52.922Z,52.78
2018-05-29T18:47:21.248Z,52.81
2018-05-29T18:49:49.596Z,52.65
2018-05-29T18:52:17.907Z,52.92
2018-05-29T18:54:46.235Z,52.88
2018-05-29T18:57:14.551Z,52.83
2018-05-29T18:59:42.883Z,52.96
2018-05-29T19:02:11.252Z,52.97
2018-05-29T19:04:39.641Z,52.85
2018-05-29T19:07:07.948Z,52.73
2018-05-29T19:09:36.285Z,52.72
2018-05-29T19:12:04.685Z,53.03
2018-05-29T19:14:33.003Z,52.88
2018-05-29T19:17:01.353Z,53.40
2018-05-29T19:19:29.661Z,53.01
2018-05-29T19:21:57.987Z,53.50
2018-05-29T19:24:26.314Z,54.94
2018-05-29T19:26:54.654Z,54.61
2018-05-29T19:29:23.009Z,55.69
2018-05-29T19:31:52.231Z,55.87
2018-05-29T19:34:20.695Z,55.49
2018-05-29T19:36:49.024Z,55.64
2018-05-29T19:39:17.341Z,55.41
2018-05-29T19:41:45.737Z,55.65
2018-05-29T19:44:14.060Z,56.03
2018-05-29T19:46:42.396Z,54.22
2018-05-29T19:49:10.694Z,53.39
2018-05-29T19:51:39.010Z,52.91
2018-05-29T19:54:07.353Z,52.10
2018-05-29T19:56:35.660Z,51.88
2018-05-29T19:59:03.980Z,51.90
2018-05-29T20:01:32.323Z,51.85
2018-05-29T20:04:00.624Z,51.97
2018-05-29T20:06:28.964Z,51.77
2018-05-29T20:08:57.287Z,51.82
2018-05-29T20:11:25.660Z,51.81
2018-05-29T20:13:53.981Z,51.71
2018-05-29T20:16:22.328Z,51.56
2018-05-29T20:18:50.666Z,51.54
2018-05-29T20:21:19.090Z,51.48
2018-05-29T20:23:47.486Z,50.90
2018-05-29T20:26:15.809Z,50.60
2018-05-29T20:28:44.241Z,50.73
2018-05-29T20:31:12.809Z,50.69
2018-05-29T20:33:41.119Z,50.41
2018-05-29T20:36:09.424Z,50.66
2018-05-29T20:38:37.750Z,50.85
2018-05-29T20:41:06.134Z,51.00
2018-05-29T20:43:34.522Z,51.36
2018-05-29T20:46:02.882Z,51.63
2018-05-29T20:48:31.238Z,51.84
2018-05-29T20:50:59.559Z,52.02
2018-05-29T20:53:27.899Z,52.35
2018-05-29T20:55:56.211Z,52.40
2018-05-29T20:58:24.532Z,52.83
2018-05-29T21:00:52.976Z,52.78
2018-05-29T21:03:21.321Z,52.73
2018-05-29T21:05:49.637Z,53.26
2018-05-29T21:08:18.039Z,53.14
2018-05-29T21:10:46.430Z,53.30
2018-05-29T21:13:14.924Z,53.73
2018-05-29T21:15:43.314Z,53.58
2018-05-29T21:18:11.727Z,52.53
2018-05-29T21:20:40.099Z,52.92
2018-05-29T21:23:08.528Z,53.28
2018-05-29T21:25:36.861Z,53.30
2018-05-29T21:28:06.008Z,53.82
2018-05-29T21:30:34.389Z,53.52
2018-05-29T21:33:02.785Z,53.10
2018-05-29T21:35:31.108Z,53.78
2018-05-29T21:37:59.454Z,53.42
2018-05-29T21:40:27.772Z,53.69
2018-05-29T21:42:56.096Z,53.52
2018-05-29T21:45:24.730Z,52.61
2018-05-29T21:47:53.058Z,51.81
2018-05-29T21:50:21.594Z,52.13
2018-05-29T21:52:50.040Z,51.81
2018-05-29T21:55:18.425Z,51.79
2018-05-29T21:57:47.738Z,52.15
2018-05-29T22:00:16.058Z,51.77
2018-05-29T22:02:44.394Z,51.99
2018-05-29T22:05:12.706Z,51.96
2018-05-29T22:07:41.101Z,51.75
2018-05-29T22:10:09.412Z,51.53
2018-05-29T22:12:37.787Z,52.05
2018-05-29T22:15:06.253Z,52.45
2018-05-29T22:17:34.769Z,52.73
2018-05-29T22:20:03.119Z,53.20
2018-05-29T22:22:31.640Z,53.66
2018-05-29T22:25:00.048Z,54.30
2018-05-29T22:27:28.654Z,54.71
2018-05-29T22:29:56.966Z,55.07
2018-05-29T22:32:25.382Z,55.25
2018-05-29T22:34:53.733Z,55.63
2018-05-29T22:37:22.143Z,55.76
2018-05-29T22:39:51.406Z,55.98
2018-05-29T22:42:19.706Z,56.19
2018-05-29T22:44:48.092Z,56.45
2018-05-29T22:47:16.459Z,56.76
2018-05-29T22:49:44.826Z,57.00
2018-05-29T22:52:13.161Z,57.07
2018-05-29T22:54:41.585Z,57.20
2018-05-29T22:57:09.890Z,57.37
2018-05-29T22:59:38.262Z,57.62
2018-05-29T23:02:06.680Z,57.84
2018-05-29T23:04:35.045Z,58.05
2018-05-29T23:07:03.354Z,58.51
2018-05-29T23:09:31.678Z,58.51
2018-05-29T23:12:00.006Z,59.00
2018-05-29T23:14:28.315Z,59.40
2018-05-29T23:16:56.714Z,59.71
2018-05-29T23:19:25.064Z,59.88
2018-05-29T23:21:53.977Z,59.99
2018-05-29T23:24:22.292Z,60.21
2018-05-29T23:26:50.708Z,60.32
2018-05-29T23:29:19.016Z,60.65
2018-05-29T23:31:47.344Z,60.73
2018-05-29T23:34:15.731Z,61.47
2018-05-29T23:36:44.091Z,61.46
2018-05-29T23:39:12.429Z,61.40
2018-05-29T23:41:40.752Z,61.66
2018-05-29T23:44:09.188Z,61.84
2018-05-29T23:46:37.518Z,62.57
2018-05-29T23:49:05.855Z,62.81
2018-05-29T23:51:34.161Z,63.13
2018-05-29T23:59:46.070Z,64.99
